sensor_id;sensor_type;location;lat;lon;timestamp;noise_LAeq;noise_LA_min;noise_LA_max;noise_LA01;noise_LA95
67294;Laerm;58160;51.434;5.978;2022-08-05T00:00:03;31.26;29.85;35.06;;
67294;Laerm;58160;51.434;5.978;2022-08-05T00:00:17;36.84;29.95;46.66;;
67294;Laerm;58160;51.434;5.978;2022-08-05T00:00:37;32.20;29.59;48.63;;
67294;Laerm;58160;51.434;5.978;2022-08-05T00:00:56;31.09;29.62;41.51;;
67294;Laerm;58160;51.434;5.978;2022-08-05T00:01:19;30.95;29.60;36.65;;
67294;Laerm;58160;51.434;5.978;2022-08-05T00:01:33;30.87;29.56;33.56;;
67294;Laerm;58160;51.434;5.978;2022-08-05T00:01:47;31.03;29.60;37.80;;
67294;Laerm;58160;51.434;5.978;2022-08-05T00:02:03;32.89;29.62;46.79;;
67294;Laerm;58160;51.434;5.978;2022-08-05T00:02:16;30.98;29.30;37.68;;
67294;Laerm;58160;51.434;5.978;2022-08-05T00:02:30;31.03;29.30;41.44;;
67294;Laerm;58160;51.434;5.978;2022-08-05T00:02:45;30.74;28.85;41.14;;
67294;Laerm;58160;51.434;5.978;2022-08-05T00:02:56;30.57;28.95;33.56;;
67294;Laerm;58160;51.434;5.978;2022-08-05T00:03:09;32.90;29.18;46.42;;
67294;Laerm;58160;51.434;5.978;2022-08-05T00:03:21;30.55;29.04;35.98;;
67294;Laerm;58160;51.434;5.978;2022-08-05T00:03:32;32.61;29.25;51.57;;
67294;Laerm;58160;51.434;5.978;2022-08-05T00:03:44;30.54;29.47;33.05;;
67294;Laerm;58160;51.434;5.978;2022-08-05T00:03:56;32.14;29.23;47.30;;
67294;Laerm;58160;51.434;5.978;2022-08-05T00:04:08;30.67;29.22;33.51;;
67294;Laerm;58160;51.434;5.978;2022-08-05T00:04:19;30.70;29.44;35.69;;
67294;Laerm;58160;51.434;5.978;2022-08-05T00:04:30;30.68;29.44;35.42;;
67294;Laerm;58160;51.434;5.978;2022-08-05T00:04:42;30.99;29.54;41.65;;
67294;Laerm;58160;51.434;5.978;2022-08-05T00:04:52;31.02;29.74;34.99;;
67294;Laerm;58160;51.434;5.978;2022-08-05T00:05:04;31.46;29.71;43.02;;
67294;Laerm;58160;51.434;5.978;2022-08-05T00:05:15;31.63;30.09;35.57;;
67294;Laerm;58160;51.434;5.978;2022-08-05T00:05:26;31.31;29.81;33.26;;
67294;Laerm;58160;51.434;5.978;2022-08-05T00:05:39;31.09;29.49;35.08;;
67294;Laerm;58160;51.434;5.978;2022-08-05T00:05:53;30.93;29.65;32.96;;
67294;Laerm;58160;51.434;5.978;2022-08-05T00:06:04;31.35;30.01;37.77;;
67294;Laerm;58160;51.434;5.978;2022-08-05T00:06:15;31.07;29.72;32.69;;
67294;Laerm;58160;51.434;5.978;2022-08-05T00:06:27;30.96;29.30;39.90;;
67294;Laerm;58160;51.434;5.978;2022-08-05T00:06:38;30.83;29.58;32.36;;
67294;Laerm;58160;51.434;5.978;2022-08-05T00:06:49;31.19;29.66;37.42;;
67294;Laerm;58160;51.434;5.978;2022-08-05T00:07:00;31.41;29.93;38.04;;
67294;Laerm;58160;51.434;5.978;2022-08-05T00:07:11;31.92;29.85;39.01;;
67294;Laerm;58160;51.434;5.978;2022-08-05T00:07:23;31.76;29.91;41.60;;
67294;Laerm;58160;51.434;5.978;2022-08-05T00:07:33;31.51;29.88;37.67;;
67294;Laerm;58160;51.434;5.978;2022-08-05T00:07:44;31.34;29.92;36.00;;
67294;Laerm;58160;51.434;5.978;2022-08-05T00:07:55;31.62;30.09;38.16;;
67294;Laerm;58160;51.434;5.978;2022-08-05T00:08:06;32.11;30.51;37.84;;
67294;Laerm;58160;51.434;5.978;2022-08-05T00:08:19;31.04;29.77;35.68;;
67294;Laerm;58160;51.434;5.978;2022-08-05T00:08:29;30.87;29.43;32.41;;
67294;Laerm;58160;51.434;5.978;2022-08-05T00:08:40;31.31;29.91;42.08;;
67294;Laerm;58160;51.434;5.978;2022-08-05T00:08:52;30.88;29.22;36.57;;
67294;Laerm;58160;51.434;5.978;2022-08-05T00:09:03;32.14;29.78;35.96;;
67294;Laerm;58160;51.434;5.978;2022-08-05T00:09:14;49.31;33.76;58.99;;
67294;Laerm;58160;51.434;5.978;2022-08-05T00:09:25;39.28;31.33;47.94;;
67294;Laerm;58160;51.434;5.978;2022-08-05T00:09:36;31.80;30.03;34.09;;
67294;Laerm;58160;51.434;5.978;2022-08-05T00:09:46;30.88;29.71;32.55;;
67294;Laerm;58160;51.434;5.978;2022-08-05T00:09:58;31.17;29.46;39.17;;
67294;Laerm;58160;51.434;5.978;2022-08-05T00:10:09;32.56;29.93;50.19;;
67294;Laerm;58160;51.434;5.978;2022-08-05T00:10:19;31.99;30.08;35.47;;
67294;Laerm;58160;51.434;5.978;2022-08-05T00:10:32;32.40;30.50;35.50;;
67294;Laerm;58160;51.434;5.978;2022-08-05T00:10:43;32.70;30.26;38.75;;
67294;Laerm;58160;51.434;5.978;2022-08-05T00:10:53;32.90;30.48;43.37;;
67294;Laerm;58160;51.434;5.978;2022-08-05T00:11:08;33.15;30.18;40.87;;
67294;Laerm;58160;51.434;5.978;2022-08-05T00:11:20;31.78;30.24;35.65;;
67294;Laerm;58160;51.434;5.978;2022-08-05T00:11:31;31.95;29.34;34.54;;
67294;Laerm;58160;51.434;5.978;2022-08-05T00:11:42;31.45;29.28;33.79;;
67294;Laerm;58160;51.434;5.978;2022-08-05T00:11:52;34.04;30.08;51.90;;
67294;Laerm;58160;51.434;5.978;2022-08-05T00:12:03;31.51;29.58;40.99;;
67294;Laerm;58160;51.434;5.978;2022-08-05T00:12:14;31.16;29.80;33.18;;
67294;Laerm;58160;51.434;5.978;2022-08-05T00:12:24;31.28;30.08;34.09;;
67294;Laerm;58160;51.434;5.978;2022-08-05T00:12:35;31.13;29.84;38.16;;
67294;Laerm;58160;51.434;5.978;2022-08-05T00:12:45;30.98;29.60;33.94;;
67294;Laerm;58160;51.434;5.978;2022-08-05T00:12:56;31.09;29.73;32.89;;
67294;Laerm;58160;51.434;5.978;2022-08-05T00:13:06;31.12;29.57;33.29;;
67294;Laerm;58160;51.434;5.978;2022-08-05T00:13:16;31.23;29.84;35.88;;
67294;Laerm;58160;51.434;5.978;2022-08-05T00:13:30;31.52;30.02;33.15;;
67294;Laerm;58160;51.434;5.978;2022-08-05T00:13:42;32.69;30.54;44.06;;
67294;Laerm;58160;51.434;5.978;2022-08-05T00:13:52;31.99;30.39;35.69;;
67294;Laerm;58160;51.434;5.978;2022-08-05T00:14:02;32.48;29.81;45.80;;
67294;Laerm;58160;51.434;5.978;2022-08-05T00:14:13;31.61;29.78;39.84;;
67294;Laerm;58160;51.434;5.978;2022-08-05T00:14:23;30.99;29.64;35.33;;
67294;Laerm;58160;51.434;5.978;2022-08-05T00:14:34;32.00;29.85;46.90;;
67294;Laerm;58160;51.434;5.978;2022-08-05T00:14:44;31.13;29.64;38.01;;
67294;Laerm;58160;51.434;5.978;2022-08-05T00:14:54;33.09;29.64;49.75;;
67294;Laerm;58160;51.434;5.978;2022-08-05T00:15:05;32.01;30.09;42.88;;
67294;Laerm;58160;51.434;5.978;2022-08-05T00:15:15;31.57;29.73;42.34;;
67294;Laerm;58160;51.434;5.978;2022-08-05T00:15:26;31.23;29.55;40.82;;
67294;Laerm;58160;51.434;5.978;2022-08-05T00:15:36;30.86;29.16;38.63;;
67294;Laerm;58160;51.434;5.978;2022-08-05T00:15:46;30.96;29.59;36.02;;
67294;Laerm;58160;51.434;5.978;2022-08-05T00:15:57;31.10;30.00;36.67;;
67294;Laerm;58160;51.434;5.978;2022-08-05T00:16:08;31.17;29.53;37.18;;
67294;Laerm;58160;51.434;5.978;2022-08-05T00:16:19;31.09;29.64;34.21;;
67294;Laerm;58160;51.434;5.978;2022-08-05T00:16:29;30.68;29.60;33.02;;
67294;Laerm;58160;51.434;5.978;2022-08-05T00:16:39;31.04;29.53;39.15;;
67294;Laerm;58160;51.434;5.978;2022-08-05T00:16:49;30.85;29.49;32.95;;
67294;Laerm;58160;51.434;5.978;2022-08-05T00:17:00;30.99;29.44;35.26;;
67294;Laerm;58160;51.434;5.978;2022-08-05T00:17:10;31.44;29.81;36.06;;
67294;Laerm;58160;51.434;5.978;2022-08-05T00:17:20;32.47;30.05;46.26;;
67294;Laerm;58160;51.434;5.978;2022-08-05T00:17:31;33.07;29.43;48.92;;
67294;Laerm;58160;51.434;5.978;2022-08-05T00:17:41;33.90;30.70;51.12;;
67294;Laerm;58160;51.434;5.978;2022-08-05T00:17:52;32.34;30.46;35.05;;
67294;Laerm;58160;51.434;5.978;2022-08-05T00:18:02;32.66;30.50;35.33;;
67294;Laerm;58160;51.434;5.978;2022-08-05T00:18:12;31.12;29.80;38.16;;
67294;Laerm;58160;51.434;5.978;2022-08-05T00:18:22;31.15;29.61;39.99;;
67294;Laerm;58160;51.434;5.978;2022-08-05T00:18:33;31.79;29.69;43.38;;
67294;Laerm;58160;51.434;5.978;2022-08-05T00:18:44;31.51;29.88;36.86;;
67294;Laerm;58160;51.434;5.978;2022-08-05T00:18:55;31.52;29.94;44.64;;
67294;Laerm;58160;51.434;5.978;2022-08-05T00:19:05;31.08;29.86;36.41;;
67294;Laerm;58160;51.434;5.978;2022-08-05T00:19:16;31.39;29.87;39.26;;
67294;Laerm;58160;51.434;5.978;2022-08-05T00:19:26;32.75;29.76;49.06;;
67294;Laerm;58160;51.434;5.978;2022-08-05T00:19:37;32.86;29.86;51.87;;
67294;Laerm;58160;51.434;5.978;2022-08-05T00:19:47;31.43;29.91;37.00;;
67294;Laerm;58160;51.434;5.978;2022-08-05T00:19:57;31.96;30.12;43.66;;
67294;Laerm;58160;51.434;5.978;2022-08-05T00:20:08;31.13;29.81;35.44;;
67294;Laerm;58160;51.434;5.978;2022-08-05T00:20:18;32.23;30.25;46.22;;
67294;Laerm;58160;51.434;5.978;2022-08-05T00:20:28;31.09;29.63;36.31;;
67294;Laerm;58160;51.434;5.978;2022-08-05T00:20:39;31.17;29.55;42.51;;
67294;Laerm;58160;51.434;5.978;2022-08-05T00:20:49;31.15;29.61;35.61;;
67294;Laerm;58160;51.434;5.978;2022-08-05T00:21:00;31.46;29.72;40.46;;
67294;Laerm;58160;51.434;5.978;2022-08-05T00:21:11;31.00;29.33;33.43;;
67294;Laerm;58160;51.434;5.978;2022-08-05T00:21:22;30.95;29.69;33.12;;
67294;Laerm;58160;51.434;5.978;2022-08-05T00:21:32;31.14;29.60;34.16;;
67294;Laerm;58160;51.434;5.978;2022-08-05T00:21:43;31.42;29.89;34.94;;
67294;Laerm;58160;51.434;5.978;2022-08-05T00:21:53;31.57;29.83;39.80;;
67294;Laerm;58160;51.434;5.978;2022-08-05T00:22:04;31.82;29.79;43.69;;
67294;Laerm;58160;51.434;5.978;2022-08-05T00:22:15;31.39;29.66;33.13;;
67294;Laerm;58160;51.434;5.978;2022-08-05T00:22:25;32.70;30.33;41.60;;
67294;Laerm;58160;51.434;5.978;2022-08-05T00:22:35;31.60;30.00;39.93;;
67294;Laerm;58160;51.434;5.978;2022-08-05T00:22:46;31.68;30.16;40.98;;
67294;Laerm;58160;51.434;5.978;2022-08-05T00:22:57;31.50;29.95;36.41;;
67294;Laerm;58160;51.434;5.978;2022-08-05T00:23:07;31.21;29.99;33.57;;
67294;Laerm;58160;51.434;5.978;2022-08-05T00:23:18;31.87;29.92;35.99;;
67294;Laerm;58160;51.434;5.978;2022-08-05T00:23:29;31.36;30.13;33.66;;
67294;Laerm;58160;51.434;5.978;2022-08-05T00:23:40;32.94;30.40;45.71;;
67294;Laerm;58160;51.434;5.978;2022-08-05T00:23:50;32.71;30.84;43.96;;
67294;Laerm;58160;51.434;5.978;2022-08-05T00:24:02;38.04;30.99;45.50;;
67294;Laerm;58160;51.434;5.978;2022-08-05T00:24:12;48.73;33.16;56.80;;
67294;Laerm;58160;51.434;5.978;2022-08-05T00:24:23;33.60;30.68;40.77;;
67294;Laerm;58160;51.434;5.978;2022-08-05T00:24:34;32.61;30.13;45.67;;
67294;Laerm;58160;51.434;5.978;2022-08-05T00:24:44;32.17;30.04;40.11;;
67294;Laerm;58160;51.434;5.978;2022-08-05T00:24:55;31.26;30.01;35.16;;
67294;Laerm;58160;51.434;5.978;2022-08-05T00:25:06;31.63;29.89;42.26;;
67294;Laerm;58160;51.434;5.978;2022-08-05T00:25:16;32.01;30.34;34.90;;
67294;Laerm;58160;51.434;5.978;2022-08-05T00:25:27;33.32;30.44;44.33;;
67294;Laerm;58160;51.434;5.978;2022-08-05T00:25:37;31.99;30.28;33.64;;
67294;Laerm;58160;51.434;5.978;2022-08-05T00:25:48;31.44;29.99;33.34;;
67294;Laerm;58160;51.434;5.978;2022-08-05T00:25:59;31.49;30.03;33.89;;
67294;Laerm;58160;51.434;5.978;2022-08-05T00:26:10;31.63;30.16;35.37;;
67294;Laerm;58160;51.434;5.978;2022-08-05T00:26:21;31.45;29.91;33.22;;
67294;Laerm;58160;51.434;5.978;2022-08-05T00:26:32;31.28;29.75;34.47;;
67294;Laerm;58160;51.434;5.978;2022-08-05T00:26:43;31.14;29.83;33.11;;
67294;Laerm;58160;51.434;5.978;2022-08-05T00:26:54;30.88;29.63;35.65;;
67294;Laerm;58160;51.434;5.978;2022-08-05T00:27:04;30.92;29.87;32.60;;
67294;Laerm;58160;51.434;5.978;2022-08-05T00:27:16;30.97;29.40;34.46;;
67294;Laerm;58160;51.434;5.978;2022-08-05T00:27:27;31.09;29.76;34.38;;
67294;Laerm;58160;51.434;5.978;2022-08-05T00:27:40;31.55;29.63;40.25;;
67294;Laerm;58160;51.434;5.978;2022-08-05T00:27:51;31.66;30.10;34.91;;
67294;Laerm;58160;51.434;5.978;2022-08-05T00:28:02;31.45;30.19;34.67;;
67294;Laerm;58160;51.434;5.978;2022-08-05T00:28:13;31.50;30.35;35.24;;
67294;Laerm;58160;51.434;5.978;2022-08-05T00:28:24;33.38;30.33;41.65;;
67294;Laerm;58160;51.434;5.978;2022-08-05T00:28:36;34.20;31.42;43.63;;
67294;Laerm;58160;51.434;5.978;2022-08-05T00:28:48;32.50;30.85;35.25;;
67294;Laerm;58160;51.434;5.978;2022-08-05T00:28:59;32.04;30.07;41.18;;
67294;Laerm;58160;51.434;5.978;2022-08-05T00:29:10;33.02;30.59;44.67;;
67294;Laerm;58160;51.434;5.978;2022-08-05T00:29:20;32.25;30.70;35.50;;
67294;Laerm;58160;51.434;5.978;2022-08-05T00:29:31;33.84;30.98;40.47;;
67294;Laerm;58160;51.434;5.978;2022-08-05T00:29:43;34.36;31.49;41.41;;
67294;Laerm;58160;51.434;5.978;2022-08-05T00:29:54;34.81;31.77;39.09;;
67294;Laerm;58160;51.434;5.978;2022-08-05T00:30:04;31.90;29.91;40.29;;
67294;Laerm;58160;51.434;5.978;2022-08-05T00:30:15;31.03;29.82;32.59;;
67294;Laerm;58160;51.434;5.978;2022-08-05T00:30:25;31.27;29.89;37.96;;
67294;Laerm;58160;51.434;5.978;2022-08-05T00:30:36;31.83;29.98;44.83;;
67294;Laerm;58160;51.434;5.978;2022-08-05T00:30:46;31.12;29.43;34.24;;
67294;Laerm;58160;51.434;5.978;2022-08-05T00:30:57;31.16;29.79;36.08;;
67294;Laerm;58160;51.434;5.978;2022-08-05T00:31:07;34.86;29.69;45.97;;
67294;Laerm;58160;51.434;5.978;2022-08-05T00:31:17;31.64;29.83;39.52;;
67294;Laerm;58160;51.434;5.978;2022-08-05T00:31:28;31.67;30.06;38.32;;
67294;Laerm;58160;51.434;5.978;2022-08-05T00:31:39;31.97;30.09;33.53;;
67294;Laerm;58160;51.434;5.978;2022-08-05T00:31:49;31.93;29.66;45.23;;
67294;Laerm;58160;51.434;5.978;2022-08-05T00:31:59;31.39;29.24;45.75;;
67294;Laerm;58160;51.434;5.978;2022-08-05T00:32:10;31.12;29.43;39.55;;
67294;Laerm;58160;51.434;5.978;2022-08-05T00:32:22;30.73;29.50;35.30;;
67294;Laerm;58160;51.434;5.978;2022-08-05T00:32:32;30.89;29.50;32.19;;
67294;Laerm;58160;51.434;5.978;2022-08-05T00:32:42;31.15;29.92;32.61;;
67294;Laerm;58160;51.434;5.978;2022-08-05T00:32:53;31.67;29.96;42.52;;
67294;Laerm;58160;51.434;5.978;2022-08-05T00:33:03;32.85;29.82;42.93;;
67294;Laerm;58160;51.434;5.978;2022-08-05T00:33:15;31.21;29.77;39.03;;
67294;Laerm;58160;51.434;5.978;2022-08-05T00:33:25;30.93;29.55;37.99;;
67294;Laerm;58160;51.434;5.978;2022-08-05T00:33:35;31.11;29.81;38.84;;
67294;Laerm;58160;51.434;5.978;2022-08-05T00:33:46;31.45;29.99;38.31;;
67294;Laerm;58160;51.434;5.978;2022-08-05T00:33:56;31.10;29.71;35.33;;
67294;Laerm;58160;51.434;5.978;2022-08-05T00:34:06;31.63;30.10;37.93;;
67294;Laerm;58160;51.434;5.978;2022-08-05T00:34:17;31.27;29.91;34.75;;
67294;Laerm;58160;51.434;5.978;2022-08-05T00:34:27;32.11;29.68;35.51;;
67294;Laerm;58160;51.434;5.978;2022-08-05T00:34:41;31.99;30.33;39.59;;
67294;Laerm;58160;51.434;5.978;2022-08-05T00:34:52;32.68;29.84;50.10;;
67294;Laerm;58160;51.434;5.978;2022-08-05T00:35:02;31.09;29.72;35.47;;
67294;Laerm;58160;51.434;5.978;2022-08-05T00:35:12;31.53;30.01;37.85;;
67294;Laerm;58160;51.434;5.978;2022-08-05T00:35:23;31.29;29.45;32.84;;
67294;Laerm;58160;51.434;5.978;2022-08-05T00:35:33;31.62;29.72;45.25;;
67294;Laerm;58160;51.434;5.978;2022-08-05T00:35:43;31.07;29.56;39.60;;
67294;Laerm;58160;51.434;5.978;2022-08-05T00:35:54;31.22;29.89;36.48;;
67294;Laerm;58160;51.434;5.978;2022-08-05T00:36:04;31.90;30.22;34.22;;
67294;Laerm;58160;51.434;5.978;2022-08-05T00:36:15;38.90;32.00;46.21;;
67294;Laerm;58160;51.434;5.978;2022-08-05T00:36:26;49.84;36.46;57.39;;
67294;Laerm;58160;51.434;5.978;2022-08-05T00:36:36;33.68;31.62;37.66;;
67294;Laerm;58160;51.434;5.978;2022-08-05T00:36:47;31.75;30.02;34.26;;
67294;Laerm;58160;51.434;5.978;2022-08-05T00:36:57;31.12;29.66;35.45;;
67294;Laerm;58160;51.434;5.978;2022-08-05T00:37:08;30.69;29.09;35.17;;
67294;Laerm;58160;51.434;5.978;2022-08-05T00:37:18;30.92;29.74;34.91;;
67294;Laerm;58160;51.434;5.978;2022-08-05T00:37:29;31.00;29.61;33.68;;
67294;Laerm;58160;51.434;5.978;2022-08-05T00:37:40;31.59;30.03;33.87;;
67294;Laerm;58160;51.434;5.978;2022-08-05T00:37:51;31.77;29.77;33.74;;
67294;Laerm;58160;51.434;5.978;2022-08-05T00:38:02;31.10;29.83;32.97;;
67294;Laerm;58160;51.434;5.978;2022-08-05T00:38:12;31.00;29.68;33.05;;
67294;Laerm;58160;51.434;5.978;2022-08-05T00:38:23;31.07;29.31;33.26;;
67294;Laerm;58160;51.434;5.978;2022-08-05T00:38:35;30.95;29.67;33.39;;
67294;Laerm;58160;51.434;5.978;2022-08-05T00:38:45;31.60;29.59;36.13;;
67294;Laerm;58160;51.434;5.978;2022-08-05T00:38:56;31.57;29.97;35.32;;
67294;Laerm;58160;51.434;5.978;2022-08-05T00:39:07;31.80;29.55;39.37;;
67294;Laerm;58160;51.434;5.978;2022-08-05T00:39:19;32.55;29.77;44.83;;
67294;Laerm;58160;51.434;5.978;2022-08-05T00:39:30;34.74;30.33;49.31;;
67294;Laerm;58160;51.434;5.978;2022-08-05T00:39:40;33.15;30.20;42.61;;
67294;Laerm;58160;51.434;5.978;2022-08-05T00:39:54;31.79;29.43;47.73;;
67294;Laerm;58160;51.434;5.978;2022-08-05T00:40:05;31.33;29.77;34.35;;
67294;Laerm;58160;51.434;5.978;2022-08-05T00:40:16;31.65;29.73;36.84;;
67294;Laerm;58160;51.434;5.978;2022-08-05T00:40:27;32.74;30.15;45.86;;
67294;Laerm;58160;51.434;5.978;2022-08-05T00:40:51;32.70;30.10;46.10;;
67294;Laerm;58160;51.434;5.978;2022-08-05T00:41:02;31.68;29.83;36.84;;
67294;Laerm;58160;51.434;5.978;2022-08-05T00:41:25;31.47;29.78;43.80;;
67294;Laerm;58160;51.434;5.978;2022-08-05T00:41:35;30.92;29.26;43.92;;
67294;Laerm;58160;51.434;5.978;2022-08-05T00:41:46;31.17;29.54;34.14;;
67294;Laerm;58160;51.434;5.978;2022-08-05T00:41:57;31.22;29.59;38.34;;
67294;Laerm;58160;51.434;5.978;2022-08-05T00:42:08;31.25;29.34;41.63;;
67294;Laerm;58160;51.434;5.978;2022-08-05T00:42:28;30.76;29.59;33.48;;
67294;Laerm;58160;51.434;5.978;2022-08-05T00:42:39;30.85;29.34;35.57;;
67294;Laerm;58160;51.434;5.978;2022-08-05T00:42:50;30.95;29.88;32.55;;
67294;Laerm;58160;51.434;5.978;2022-08-05T00:43:01;32.17;29.97;41.83;;
67294;Laerm;58160;51.434;5.978;2022-08-05T00:43:12;32.93;29.73;49.91;;
67294;Laerm;58160;51.434;5.978;2022-08-05T00:43:23;31.13;29.87;36.01;;
67294;Laerm;58160;51.434;5.978;2022-08-05T00:43:34;31.58;29.95;42.11;;
67294;Laerm;58160;51.434;5.978;2022-08-05T00:43:46;31.78;30.37;38.33;;
67294;Laerm;58160;51.434;5.978;2022-08-05T00:43:57;32.44;30.17;44.48;;
67294;Laerm;58160;51.434;5.978;2022-08-05T00:44:08;32.31;30.12;43.28;;
67294;Laerm;58160;51.434;5.978;2022-08-05T00:44:18;30.95;29.49;40.66;;
67294;Laerm;58160;51.434;5.978;2022-08-05T00:44:29;31.89;29.54;45.11;;
67294;Laerm;58160;51.434;5.978;2022-08-05T00:44:40;30.92;29.40;41.23;;
67294;Laerm;58160;51.434;5.978;2022-08-05T00:44:51;30.79;29.50;38.34;;
67294;Laerm;58160;51.434;5.978;2022-08-05T00:45:02;30.72;29.45;32.39;;
67294;Laerm;58160;51.434;5.978;2022-08-05T00:45:13;30.91;29.49;40.99;;
67294;Laerm;58160;51.434;5.978;2022-08-05T00:45:24;32.38;29.85;45.95;;
67294;Laerm;58160;51.434;5.978;2022-08-05T00:45:34;33.31;29.85;49.84;;
67294;Laerm;58160;51.434;5.978;2022-08-05T00:45:45;30.84;29.30;35.98;;
67294;Laerm;58160;51.434;5.978;2022-08-05T00:45:57;31.47;29.28;41.63;;
67294;Laerm;58160;51.434;5.978;2022-08-05T00:46:08;30.55;29.25;32.45;;
67294;Laerm;58160;51.434;5.978;2022-08-05T00:46:18;30.51;29.51;31.98;;
67294;Laerm;58160;51.434;5.978;2022-08-05T00:46:29;30.59;29.32;32.97;;
67294;Laerm;58160;51.434;5.978;2022-08-05T00:46:39;30.49;29.36;31.97;;
67294;Laerm;58160;51.434;5.978;2022-08-05T00:46:51;31.92;29.52;45.84;;
67294;Laerm;58160;51.434;5.978;2022-08-05T00:47:01;30.57;28.96;34.44;;
67294;Laerm;58160;51.434;5.978;2022-08-05T00:47:12;32.96;29.49;50.18;;
67294;Laerm;58160;51.434;5.978;2022-08-05T00:47:23;30.53;29.25;32.81;;
67294;Laerm;58160;51.434;5.978;2022-08-05T00:47:34;30.81;29.45;36.05;;
67294;Laerm;58160;51.434;5.978;2022-08-05T00:47:45;30.58;29.37;32.30;;
67294;Laerm;58160;51.434;5.978;2022-08-05T00:47:56;30.51;29.25;32.55;;
67294;Laerm;58160;51.434;5.978;2022-08-05T00:48:07;30.64;29.01;38.75;;
67294;Laerm;58160;51.434;5.978;2022-08-05T00:48:19;30.67;29.45;35.28;;
67294;Laerm;58160;51.434;5.978;2022-08-05T00:48:30;30.43;29.28;31.73;;
67294;Laerm;58160;51.434;5.978;2022-08-05T00:48:41;30.56;28.97;38.04;;
67294;Laerm;58160;51.434;5.978;2022-08-05T00:48:52;32.47;29.58;36.65;;
67294;Laerm;58160;51.434;5.978;2022-08-05T00:49:03;32.84;31.28;37.80;;
67294;Laerm;58160;51.434;5.978;2022-08-05T00:49:14;32.76;31.13;35.56;;
67294;Laerm;58160;51.434;5.978;2022-08-05T00:49:28;33.43;31.53;41.10;;
67294;Laerm;58160;51.434;5.978;2022-08-05T00:49:39;32.70;31.03;34.44;;
67294;Laerm;58160;51.434;5.978;2022-08-05T00:49:49;32.47;30.87;35.06;;
67294;Laerm;58160;51.434;5.978;2022-08-05T00:50:00;32.73;31.03;35.64;;
67294;Laerm;58160;51.434;5.978;2022-08-05T00:50:10;33.33;31.80;34.65;;
67294;Laerm;58160;51.434;5.978;2022-08-05T00:50:21;33.04;31.23;36.24;;
67294;Laerm;58160;51.434;5.978;2022-08-05T00:50:31;33.16;31.66;36.63;;
67294;Laerm;58160;51.434;5.978;2022-08-05T00:50:47;33.39;31.71;37.06;;
67294;Laerm;58160;51.434;5.978;2022-08-05T00:50:58;34.47;31.86;38.58;;
67294;Laerm;58160;51.434;5.978;2022-08-05T00:51:08;34.10;31.65;43.25;;
67294;Laerm;58160;51.434;5.978;2022-08-05T00:51:19;33.62;31.95;37.37;;
67294;Laerm;58160;51.434;5.978;2022-08-05T00:51:30;34.05;31.92;36.67;;
67294;Laerm;58160;51.434;5.978;2022-08-05T00:51:40;34.31;32.10;39.12;;
67294;Laerm;58160;51.434;5.978;2022-08-05T00:51:50;34.34;32.05;37.23;;
67294;Laerm;58160;51.434;5.978;2022-08-05T00:52:01;33.70;31.89;36.11;;
67294;Laerm;58160;51.434;5.978;2022-08-05T00:52:11;33.78;32.12;36.23;;
67294;Laerm;58160;51.434;5.978;2022-08-05T00:52:21;33.95;32.28;42.25;;
67294;Laerm;58160;51.434;5.978;2022-08-05T00:52:32;33.71;32.09;35.75;;
67294;Laerm;58160;51.434;5.978;2022-08-05T00:52:42;33.30;31.56;36.90;;
67294;Laerm;58160;51.434;5.978;2022-08-05T00:52:52;32.85;31.25;35.31;;
67294;Laerm;58160;51.434;5.978;2022-08-05T00:53:03;32.58;30.96;38.90;;
67294;Laerm;58160;51.434;5.978;2022-08-05T00:53:14;32.77;31.07;41.47;;
67294;Laerm;58160;51.434;5.978;2022-08-05T00:53:25;32.49;30.79;36.26;;
67294;Laerm;58160;51.434;5.978;2022-08-05T00:53:36;32.55;31.36;35.56;;
67294;Laerm;58160;51.434;5.978;2022-08-05T00:53:46;32.58;31.13;34.27;;
67294;Laerm;58160;51.434;5.978;2022-08-05T00:53:56;32.45;30.99;37.40;;
67294;Laerm;58160;51.434;5.978;2022-08-05T00:54:07;33.05;30.42;43.42;;
67294;Laerm;58160;51.434;5.978;2022-08-05T00:54:17;32.27;30.60;34.14;;
67294;Laerm;58160;51.434;5.978;2022-08-05T00:54:27;32.10;30.74;33.55;;
67294;Laerm;58160;51.434;5.978;2022-08-05T00:54:38;32.24;30.83;33.93;;
67294;Laerm;58160;51.434;5.978;2022-08-05T00:54:48;33.00;30.72;45.62;;
67294;Laerm;58160;51.434;5.978;2022-08-05T00:54:58;32.53;30.68;41.43;;
67294;Laerm;58160;51.434;5.978;2022-08-05T00:55:08;33.74;31.39;39.54;;
67294;Laerm;58160;51.434;5.978;2022-08-05T00:55:19;33.62;31.20;40.18;;
67294;Laerm;58160;51.434;5.978;2022-08-05T00:55:29;32.58;30.72;40.16;;
67294;Laerm;58160;51.434;5.978;2022-08-05T00:55:39;33.10;30.87;41.03;;
67294;Laerm;58160;51.434;5.978;2022-08-05T00:55:49;32.44;30.85;34.59;;
67294;Laerm;58160;51.434;5.978;2022-08-05T00:56:00;32.30;30.08;37.88;;
67294;Laerm;58160;51.434;5.978;2022-08-05T00:56:10;30.70;29.48;36.95;;
67294;Laerm;58160;51.434;5.978;2022-08-05T00:56:21;30.97;29.65;36.76;;
67294;Laerm;58160;51.434;5.978;2022-08-05T00:56:31;30.88;29.64;35.72;;
67294;Laerm;58160;51.434;5.978;2022-08-05T00:56:42;30.89;29.25;37.76;;
67294;Laerm;58160;51.434;5.978;2022-08-05T00:56:52;31.13;29.71;32.89;;
67294;Laerm;58160;51.434;5.978;2022-08-05T00:57:03;30.93;29.60;34.27;;
67294;Laerm;58160;51.434;5.978;2022-08-05T00:57:13;31.34;29.87;35.28;;
67294;Laerm;58160;51.434;5.978;2022-08-05T00:57:23;30.91;29.61;34.47;;
67294;Laerm;58160;51.434;5.978;2022-08-05T00:57:34;30.53;29.49;31.81;;
67294;Laerm;58160;51.434;5.978;2022-08-05T00:57:44;30.61;29.39;35.15;;
67294;Laerm;58160;51.434;5.978;2022-08-05T00:57:55;31.02;29.67;33.22;;
67294;Laerm;58160;51.434;5.978;2022-08-05T00:58:05;30.71;29.64;32.67;;
67294;Laerm;58160;51.434;5.978;2022-08-05T00:58:15;30.80;29.63;32.70;;
67294;Laerm;58160;51.434;5.978;2022-08-05T00:58:26;30.94;29.69;33.99;;
67294;Laerm;58160;51.434;5.978;2022-08-05T00:58:36;31.03;29.42;35.59;;
67294;Laerm;58160;51.434;5.978;2022-08-05T00:58:47;30.87;29.33;35.06;;
67294;Laerm;58160;51.434;5.978;2022-08-05T00:58:57;30.82;29.41;37.60;;
67294;Laerm;58160;51.434;5.978;2022-08-05T00:59:08;30.73;29.41;32.41;;
67294;Laerm;58160;51.434;5.978;2022-08-05T00:59:18;31.15;29.84;32.99;;
67294;Laerm;58160;51.434;5.978;2022-08-05T00:59:28;31.34;29.82;39.26;;
67294;Laerm;58160;51.434;5.978;2022-08-05T00:59:38;30.99;29.46;39.02;;
67294;Laerm;58160;51.434;5.978;2022-08-05T00:59:49;30.79;29.20;38.99;;
67294;Laerm;58160;51.434;5.978;2022-08-05T00:59:59;31.13;29.42;33.53;;
67294;Laerm;58160;51.434;5.978;2022-08-05T01:00:10;38.51;30.12;51.51;;
67294;Laerm;58160;51.434;5.978;2022-08-05T01:00:20;34.57;29.60;45.21;;
67294;Laerm;58160;51.434;5.978;2022-08-05T01:00:30;31.24;29.57;37.00;;
67294;Laerm;58160;51.434;5.978;2022-08-05T01:00:41;32.07;29.59;43.75;;
67294;Laerm;58160;51.434;5.978;2022-08-05T01:00:51;32.14;30.04;37.19;;
67294;Laerm;58160;51.434;5.978;2022-08-05T01:01:01;31.03;29.59;33.47;;
67294;Laerm;58160;51.434;5.978;2022-08-05T01:01:12;30.90;29.43;36.98;;
67294;Laerm;58160;51.434;5.978;2022-08-05T01:01:24;31.63;29.89;37.47;;
67294;Laerm;58160;51.434;5.978;2022-08-05T01:01:35;31.12;29.64;35.07;;
67294;Laerm;58160;51.434;5.978;2022-08-05T01:01:45;30.99;29.39;37.63;;
67294;Laerm;58160;51.434;5.978;2022-08-05T01:01:55;30.87;29.37;34.08;;